Terminal Aerodrome Forecast
Issued by NWS Upton, NY

Home | Current Version | Previous Version | Text Only | Print | Product List | Glossary On
Versions: 1 2 3 4 5 6 7 8 9 10 11 12 13 14 15 16 17 18 19 20 21 22 23 24 25 26 27 28 29
000
FTUS41 KOKX 240535
TAFLGA
TAF
KLGA 240535Z 2406/2506 16016G28KT P6SM -SHRA BKN025
     FM240900 16016G29KT 3SM SHRA SCT005 OVC012 WS020/17050KT
     FM241300 16018G30KT 2SM +SHRA VCTS SCT005CB OVC012
      WS020/17050KT
     FM241500 17019G36KT 2SM +SHRA VCTS SCT005CB OVC012
      WS020/17050KT
     FM242300 18016G29KT 2SM +SHRA VCTS SCT005CB OVC012
      WS020/17050KT
     FM250200 21014G20KT 2SM +SHRA VCTS SCT005CB OVC012
      WS020/17050KT
     FM250300 22012KT 2SM +SHRA VCTS SCT005CB OVC012
     FM250500 17007KT 2SM +SHRA VCTS SCT005CB OVC012=

USA.gov is the U.S. government's official web portal to all federal, state and local government web resources and services.